createdAt,value
2018-08-13T00:00:39.281Z,3.67
2018-08-13T00:03:06.843Z,3.23
2018-08-13T00:05:34.337Z,3.50
2018-08-13T00:08:01.851Z,3.50
2018-08-13T00:10:29.679Z,3.20
2018-08-13T00:12:57.201Z,3.43
2018-08-13T00:15:24.664Z,3.60
2018-08-13T00:17:52.131Z,3.40
2018-08-13T00:20:19.677Z,3.30
2018-08-13T00:22:47.138Z,3.43
2018-08-13T00:25:14.783Z,3.50
2018-08-13T00:27:42.286Z,3.37
2018-08-13T00:30:09.791Z,3.60
2018-08-13T00:32:37.277Z,3.40
2018-08-13T00:35:04.802Z,3.47
2018-08-13T00:37:32.330Z,3.30
2018-08-13T00:39:59.780Z,3.20
2018-08-13T00:42:27.278Z,3.57
2018-08-13T00:44:54.752Z,3.50
2018-08-13T00:47:22.311Z,3.07
2018-08-13T00:49:49.806Z,3.30
2018-08-13T00:52:17.344Z,3.53
2018-08-13T00:54:44.930Z,3.63
2018-08-13T00:57:12.448Z,3.13
2018-08-13T00:59:40.215Z,3.50
2018-08-13T01:02:07.933Z,3.23
2018-08-13T01:04:42.593Z,3.30
2018-08-13T01:07:10.136Z,3.60
2018-08-13T01:09:37.762Z,3.20
2018-08-13T01:12:05.389Z,3.30
2018-08-13T01:14:32.989Z,3.03
2018-08-13T01:17:00.532Z,3.40
2018-08-13T01:19:28.063Z,3.40
2018-08-13T01:21:55.538Z,3.40
2018-08-13T01:24:23.015Z,3.37
2018-08-13T01:26:50.558Z,3.50
2018-08-13T01:29:18.067Z,3.30
2018-08-13T01:31:45.517Z,3.60
2018-08-13T01:34:13.020Z,3.23
2018-08-13T01:36:40.526Z,3.43
2018-08-13T01:39:09.350Z,3.30
2018-08-13T01:41:37.102Z,3.20
2018-08-13T01:44:04.688Z,3.33
2018-08-13T01:46:32.300Z,3.40
2018-08-13T01:48:59.833Z,3.20
2018-08-13T01:51:27.418Z,3.20
2018-08-13T01:53:54.913Z,3.40
2018-08-13T01:56:22.433Z,3.40
2018-08-13T01:58:49.870Z,3.50
2018-08-13T02:01:17.337Z,3.30
2018-08-13T02:03:45.677Z,3.50
2018-08-13T02:06:13.267Z,3.40
2018-08-13T02:08:40.817Z,3.30
2018-08-13T02:11:08.297Z,3.13
2018-08-13T02:13:35.762Z,3.83
2018-08-13T02:16:03.299Z,3.33
2018-08-13T02:18:30.835Z,3.33
2018-08-13T02:20:58.338Z,3.50
2018-08-13T02:23:25.799Z,3.47
2018-08-13T02:25:53.423Z,3.40
2018-08-13T02:28:20.946Z,3.30
2018-08-13T02:30:48.445Z,3.23
2018-08-13T02:33:16.542Z,3.40
2018-08-13T02:35:44.074Z,3.70
2018-08-13T02:38:11.576Z,3.80
2018-08-13T02:40:39.097Z,3.63
2018-08-13T02:43:06.637Z,3.50
2018-08-13T02:45:34.091Z,3.53
2018-08-13T02:48:01.575Z,3.60
2018-08-13T02:50:29.076Z,3.53
2018-08-13T02:52:56.605Z,3.50
2018-08-13T02:55:24.079Z,3.70
2018-08-13T02:57:51.604Z,3.47
2018-08-13T03:00:19.070Z,3.37
2018-08-13T03:02:46.562Z,3.57
2018-08-13T03:05:14.071Z,3.50
2018-08-13T03:07:41.533Z,3.63
2018-08-13T03:10:10.741Z,3.47
2018-08-13T03:12:38.303Z,3.57
2018-08-13T03:15:08.605Z,3.50
2018-08-13T03:17:36.104Z,3.40
2018-08-13T03:20:04.789Z,3.43
2018-08-13T03:22:32.253Z,3.50
2018-08-13T03:25:00.842Z,3.53
2018-08-13T03:27:28.584Z,3.40
2018-08-13T03:29:56.216Z,3.57
2018-08-13T03:32:23.661Z,3.30
2018-08-13T03:34:51.218Z,3.50
2018-08-13T03:37:18.669Z,3.17
2018-08-13T03:39:46.116Z,3.27
2018-08-13T03:42:13.533Z,3.70
2018-08-13T03:44:40.974Z,3.57
2018-08-13T03:47:08.398Z,3.30
2018-08-13T03:49:35.898Z,3.47
2018-08-13T03:52:04.552Z,3.60
2018-08-13T03:54:32.033Z,3.33
2018-08-13T03:56:59.545Z,3.30
2018-08-13T03:59:26.965Z,3.53
2018-08-13T04:01:54.452Z,3.47
2018-08-13T04:04:21.902Z,3.60
2018-08-13T04:06:49.375Z,3.60
2018-08-13T04:09:16.810Z,3.00
2018-08-13T04:11:44.289Z,3.50
2018-08-13T04:14:11.862Z,3.40
2018-08-13T04:16:39.333Z,2.87
2018-08-13T04:19:07.837Z,3.50
2018-08-13T04:21:35.283Z,3.50
2018-08-13T04:24:02.788Z,3.30
2018-08-13T04:26:30.379Z,3.20
2018-08-13T04:28:57.957Z,3.20
2018-08-13T04:31:25.467Z,3.43
2018-08-13T04:33:53.311Z,3.23
2018-08-13T04:36:20.777Z,3.67
2018-08-13T04:38:48.246Z,3.60
2018-08-13T04:41:15.742Z,3.43
2018-08-13T04:43:43.236Z,3.20
2018-08-13T04:46:10.706Z,3.30
2018-08-13T04:48:38.195Z,3.53
2018-08-13T04:51:05.718Z,3.30
2018-08-13T04:53:33.171Z,3.50
2018-08-13T04:56:00.632Z,3.50
2018-08-13T04:58:28.087Z,3.03
2018-08-13T05:00:55.612Z,3.40
2018-08-13T05:03:23.036Z,3.60
2018-08-13T05:05:50.530Z,3.60
2018-08-13T05:08:17.988Z,3.63
2018-08-13T05:10:45.496Z,3.57
2018-08-13T05:13:12.985Z,3.40
2018-08-13T05:15:40.918Z,3.30
2018-08-13T05:18:08.435Z,3.97
2018-08-13T05:20:35.931Z,3.93
2018-08-13T05:23:03.415Z,3.63
2018-08-13T05:25:30.942Z,3.73
2018-08-13T05:27:58.454Z,3.60
2018-08-13T05:30:25.903Z,3.60
2018-08-13T05:32:53.405Z,3.40
2018-08-13T05:35:20.909Z,3.50
2018-08-13T05:37:48.485Z,3.80
2018-08-13T05:40:15.991Z,3.80
2018-08-13T05:42:43.439Z,3.60
2018-08-13T05:45:10.977Z,3.60
2018-08-13T05:47:38.575Z,3.90
2018-08-13T05:50:07.691Z,3.93
2018-08-13T05:52:35.151Z,4.00
2018-08-13T05:55:02.691Z,5.60
2018-08-13T05:57:30.198Z,4.23
2018-08-13T05:59:57.745Z,4.10
2018-08-13T06:02:25.267Z,3.83
2018-08-13T06:04:52.843Z,3.77
2018-08-13T06:07:20.331Z,4.00
2018-08-13T06:09:47.849Z,4.40
2018-08-13T06:12:15.507Z,4.30
2018-08-13T06:14:42.955Z,3.73
2018-08-13T06:17:10.472Z,4.40
2018-08-13T06:19:38.025Z,4.43
2018-08-13T06:22:05.561Z,4.23
2018-08-13T06:24:33.062Z,3.73
2018-08-13T06:27:00.644Z,4.10
2018-08-13T06:29:28.460Z,4.40
2018-08-13T06:31:55.935Z,4.47
2018-08-13T06:34:23.438Z,3.60
2018-08-13T06:36:50.948Z,3.57
2018-08-13T06:39:18.468Z,3.90
2018-08-13T06:41:45.910Z,3.87
2018-08-13T06:44:13.446Z,3.77
2018-08-13T06:46:40.998Z,3.67
2018-08-13T06:49:08.550Z,3.80
2018-08-13T06:51:36.006Z,3.73
2018-08-13T06:54:03.864Z,3.90
2018-08-13T06:56:31.446Z,3.70
2018-08-13T06:58:59.010Z,3.50
2018-08-13T07:01:26.672Z,3.80
2018-08-13T07:03:54.154Z,3.97
2018-08-13T07:06:21.704Z,4.00
2018-08-13T07:08:49.206Z,4.03
2018-08-13T07:11:16.702Z,3.57
2018-08-13T07:13:45.102Z,3.77
2018-08-13T07:16:12.590Z,3.93
2018-08-13T07:18:40.242Z,3.90
2018-08-13T07:21:07.762Z,3.80
2018-08-13T07:23:35.251Z,4.00
2018-08-13T07:26:02.805Z,3.70
2018-08-13T07:28:30.272Z,3.73
2018-08-13T07:30:57.844Z,4.00
2018-08-13T07:33:25.360Z,4.40
2018-08-13T07:35:52.858Z,4.07
2018-08-13T07:38:20.403Z,4.10
2018-08-13T07:40:47.889Z,4.00
2018-08-13T07:43:15.384Z,3.87
2018-08-13T07:45:42.917Z,3.50
2018-08-13T07:48:10.494Z,3.93
2018-08-13T07:50:37.959Z,4.30
2018-08-13T07:53:05.549Z,3.83
2018-08-13T07:55:33.122Z,4.13
2018-08-13T07:58:00.734Z,4.07
2018-08-13T08:00:28.239Z,4.00
2018-08-13T08:02:55.795Z,3.90
2018-08-13T08:05:23.321Z,4.07
2018-08-13T08:07:50.908Z,3.90
2018-08-13T08:10:18.389Z,3.73
2018-08-13T08:13:18.839Z,3.77
2018-08-13T08:15:46.357Z,3.60
2018-08-13T08:18:13.901Z,3.53
2018-08-13T08:20:43.341Z,3.73
2018-08-13T08:23:10.802Z,3.40
2018-08-13T08:25:38.348Z,3.77
2018-08-13T08:28:05.914Z,3.70
2018-08-13T08:30:33.439Z,3.33
2018-08-13T08:33:00.972Z,3.17
2018-08-13T08:35:28.465Z,3.53
2018-08-13T08:38:03.807Z,3.43
2018-08-13T08:40:31.361Z,3.53
2018-08-13T08:42:58.870Z,3.50
2018-08-13T08:45:26.977Z,3.60
2018-08-13T08:47:55.245Z,3.20
2018-08-13T08:50:22.869Z,3.30
2018-08-13T08:52:50.410Z,3.37
2018-08-13T08:55:28.895Z,3.23
2018-08-13T08:57:56.408Z,3.20
2018-08-13T09:00:24.416Z,3.17
2018-08-13T09:02:52.079Z,3.20
2018-08-13T09:05:19.599Z,3.00
2018-08-13T09:07:47.354Z,3.10
2018-08-13T09:10:14.899Z,3.33
2018-08-13T09:13:03.692Z,2.77
2018-08-13T09:15:31.190Z,2.83
2018-08-13T09:19:07.459Z,3.07
2018-08-13T09:21:36.255Z,3.10
2018-08-13T09:24:15.959Z,2.93
2018-08-13T09:26:54.837Z,2.80
2018-08-13T09:29:33.709Z,2.83
2018-08-13T09:32:26.723Z,3.00
2018-08-13T09:35:05.759Z,2.93
2018-08-13T09:37:33.318Z,2.87
2018-08-13T09:40:00.789Z,3.07
2018-08-13T09:42:28.257Z,2.73
2018-08-13T09:44:55.814Z,3.00
2018-08-13T09:47:23.613Z,3.10
2018-08-13T09:49:51.093Z,3.10
2018-08-13T09:54:52.662Z,2.70
2018-08-13T09:57:20.140Z,3.20
2018-08-13T09:59:47.602Z,2.93
2018-08-13T10:02:15.064Z,2.70
2018-08-13T10:04:42.614Z,2.83
2018-08-13T10:07:10.184Z,2.70
2018-08-13T10:09:37.739Z,2.80
2018-08-13T10:12:05.267Z,2.80
2018-08-13T10:14:32.803Z,3.17
2018-08-13T10:17:00.334Z,3.37
2018-08-13T10:19:27.906Z,3.20
2018-08-13T10:21:55.407Z,3.27
2018-08-13T10:24:22.898Z,3.10
2018-08-13T10:26:50.425Z,3.20
2018-08-13T10:29:17.869Z,3.90
2018-08-13T10:31:45.413Z,3.20
2018-08-13T10:34:12.961Z,3.60
2018-08-13T10:36:40.436Z,3.17
2018-08-13T10:39:08.924Z,3.20
2018-08-13T10:41:36.731Z,2.83
2018-08-13T10:44:05.184Z,3.00
2018-08-13T10:46:32.695Z,3.30
2018-08-13T10:49:00.275Z,3.27
2018-08-13T10:51:27.772Z,3.17
2018-08-13T10:53:55.289Z,3.10
2018-08-13T10:56:22.820Z,3.07
2018-08-13T10:58:50.282Z,3.10
2018-08-13T11:01:17.875Z,2.97
2018-08-13T11:03:45.406Z,2.90
2018-08-13T11:06:12.945Z,2.90
2018-08-13T11:08:40.427Z,2.70
2018-08-13T11:11:08.020Z,2.57
2018-08-13T11:13:35.576Z,2.77
2018-08-13T11:16:03.086Z,2.97
2018-08-13T11:18:30.873Z,2.90
2018-08-13T11:20:58.313Z,3.00
2018-08-13T11:23:25.829Z,3.10
2018-08-13T11:25:53.301Z,3.10
2018-08-13T11:28:20.806Z,3.00
2018-08-13T11:30:48.279Z,2.80
2018-08-13T11:33:15.875Z,3.10
2018-08-13T11:35:44.074Z,3.10
2018-08-13T11:38:11.566Z,2.90
2018-08-13T11:40:39.100Z,3.00
2018-08-13T11:43:06.713Z,3.03
2018-08-13T11:45:34.234Z,3.10
2018-08-13T11:48:01.844Z,3.13
2018-08-13T11:50:29.431Z,2.90
2018-08-13T11:52:56.998Z,3.30
2018-08-13T11:55:24.520Z,3.40
2018-08-13T11:57:52.072Z,2.80
2018-08-13T12:00:19.657Z,3.30
2018-08-13T12:02:47.186Z,3.40
2018-08-13T12:05:15.444Z,3.20
2018-08-13T12:07:43.394Z,3.00
2018-08-13T12:10:11.480Z,3.30
2018-08-13T12:12:39.892Z,3.37
2018-08-13T12:15:08.267Z,3.33
2018-08-13T12:17:35.796Z,3.10
2018-08-13T12:20:05.687Z,3.40
2018-08-13T12:22:33.197Z,3.20
2018-08-13T12:25:00.697Z,3.27
2018-08-13T12:27:28.219Z,3.37
2018-08-13T12:29:55.723Z,3.27
2018-08-13T12:32:23.585Z,3.20
2018-08-13T12:34:51.099Z,3.23
2018-08-13T12:37:18.597Z,3.53
2018-08-13T12:39:46.139Z,3.37
2018-08-13T12:42:13.699Z,3.37
2018-08-13T12:44:41.167Z,3.10
2018-08-13T12:47:08.733Z,3.27
2018-08-13T12:49:36.280Z,3.77
2018-08-13T12:52:03.857Z,3.70
2018-08-13T12:54:31.391Z,3.30
2018-08-13T12:56:58.933Z,3.33
2018-08-13T12:59:26.419Z,3.60
2018-08-13T13:01:53.907Z,3.33
2018-08-13T13:04:21.553Z,3.13
2018-08-13T13:06:55.803Z,3.33
2018-08-13T13:09:23.329Z,3.10
2018-08-13T13:11:50.818Z,3.40
2018-08-13T13:14:18.329Z,3.40
2018-08-13T13:16:45.908Z,3.37
2018-08-13T13:19:13.387Z,3.40
2018-08-13T13:21:40.968Z,3.30
2018-08-13T13:24:08.418Z,3.47
2018-08-13T13:26:36.090Z,3.30
2018-08-13T13:29:04.012Z,3.20
2018-08-13T13:31:31.534Z,3.20
2018-08-13T13:33:59.051Z,3.30
2018-08-13T13:36:26.524Z,3.53
2018-08-13T13:38:54.007Z,3.20
2018-08-13T13:41:21.567Z,3.33
2018-08-13T13:43:49.257Z,3.30
2018-08-13T13:46:16.760Z,3.40
2018-08-13T13:48:44.169Z,3.30
2018-08-13T13:51:11.688Z,3.40
2018-08-13T13:53:39.201Z,3.33
2018-08-13T13:56:07.378Z,3.30
2018-08-13T13:58:34.874Z,3.47
2018-08-13T14:01:02.459Z,3.63
2018-08-13T14:03:30.051Z,3.37
2018-08-13T14:05:57.597Z,3.80
2018-08-13T14:08:25.124Z,3.50
2018-08-13T14:10:52.651Z,3.37
2018-08-13T14:13:20.300Z,3.23
2018-08-13T14:15:47.870Z,3.00
2018-08-13T14:18:15.489Z,3.13
2018-08-13T14:20:43.155Z,3.03
2018-08-13T14:23:10.754Z,2.93
2018-08-13T14:25:38.290Z,3.20
2018-08-13T14:28:05.877Z,3.10
2018-08-13T14:30:33.421Z,2.90
2018-08-13T14:33:01.003Z,2.90
2018-08-13T14:35:28.457Z,2.97
2018-08-13T14:37:56.052Z,2.77
2018-08-13T14:40:23.579Z,3.03
2018-08-13T14:42:51.092Z,3.23
2018-08-13T14:45:19.043Z,2.80
2018-08-13T14:47:48.196Z,2.70
2018-08-13T14:50:15.811Z,2.83
2018-08-13T14:52:44.631Z,2.97
2018-08-13T14:55:13.181Z,2.73
2018-08-13T14:57:40.844Z,3.43
2018-08-13T15:00:15.053Z,3.80
2018-08-13T15:02:42.771Z,3.53
2018-08-13T15:05:10.390Z,6.53
2018-08-13T15:07:37.944Z,7.10
2018-08-13T15:10:08.899Z,4.80
2018-08-13T15:12:36.414Z,6.67
2018-08-13T15:15:06.443Z,4.83
2018-08-13T15:17:34.051Z,5.03
2018-08-13T15:20:03.103Z,4.70
2018-08-13T15:22:30.785Z,4.60
2018-08-13T15:24:58.274Z,5.30
2018-08-13T15:27:25.883Z,4.57
2018-08-13T15:29:53.398Z,4.50
2018-08-13T15:32:20.946Z,5.03
2018-08-13T15:34:48.533Z,4.37
2018-08-13T15:37:16.035Z,3.83
2018-08-13T15:39:43.547Z,4.43
2018-08-13T15:42:11.139Z,4.00
2018-08-13T15:44:38.569Z,4.00
2018-08-13T15:47:06.197Z,3.70
2018-08-13T15:49:33.726Z,3.97
2018-08-13T15:52:01.777Z,4.30
2018-08-13T15:54:29.224Z,3.80
2018-08-13T15:56:56.825Z,4.63
2018-08-13T15:59:24.250Z,4.00
2018-08-13T16:01:51.844Z,4.07
2018-08-13T16:04:19.315Z,4.23
2018-08-13T16:06:46.832Z,4.20
2018-08-13T16:09:14.287Z,4.30
2018-08-13T16:11:41.790Z,4.10
2018-08-13T16:14:09.448Z,4.50
2018-08-13T16:16:36.963Z,4.40
2018-08-13T16:19:04.491Z,4.13
2018-08-13T16:21:33.277Z,4.20
2018-08-13T16:24:00.850Z,4.57
2018-08-13T16:26:28.432Z,4.00
2018-08-13T16:28:56.047Z,4.33
2018-08-13T16:31:23.638Z,4.17
2018-08-13T16:33:51.163Z,3.97
2018-08-13T16:36:18.790Z,3.97
2018-08-13T16:38:46.426Z,3.63
2018-08-13T16:41:13.984Z,4.10
2018-08-13T16:43:41.635Z,3.90
2018-08-13T16:46:09.213Z,3.77
2018-08-13T16:48:36.791Z,4.40
2018-08-13T16:51:04.384Z,4.93
2018-08-13T16:53:32.148Z,4.87
2018-08-13T16:55:59.769Z,5.00
2018-08-13T16:58:27.365Z,5.03
2018-08-13T17:00:54.976Z,4.60
2018-08-13T17:03:22.541Z,4.73
2018-08-13T17:05:50.109Z,4.60
2018-08-13T17:08:17.687Z,4.80
2018-08-13T17:10:45.310Z,11.27
2018-08-13T17:13:12.795Z,6.00
2018-08-13T17:15:40.375Z,4.33
2018-08-13T17:18:07.954Z,5.47
2018-08-13T17:20:38.984Z,4.90
2018-08-13T17:23:06.561Z,3.90
2018-08-13T17:25:34.140Z,3.57
2018-08-13T17:28:01.731Z,4.03
2018-08-13T17:30:30.149Z,3.90
2018-08-13T17:32:59.950Z,3.67
2018-08-13T17:35:32.591Z,3.70
2018-08-13T17:38:00.809Z,3.97
2018-08-13T17:40:28.630Z,4.00
2018-08-13T17:42:56.338Z,3.93
2018-08-13T17:45:24.036Z,4.03
2018-08-13T17:47:51.958Z,4.30
2018-08-13T17:50:20.363Z,4.37
2018-08-13T17:52:47.939Z,4.30
2018-08-13T17:55:15.927Z,4.10
2018-08-13T17:57:43.854Z,3.93
2018-08-13T18:00:17.046Z,4.07
2018-08-13T18:02:44.748Z,4.10
2018-08-13T18:05:14.453Z,4.10
2018-08-13T18:07:42.259Z,3.67
2018-08-13T18:10:40.707Z,4.00
2018-08-13T18:13:08.724Z,4.30
2018-08-13T18:15:36.291Z,3.93
2018-08-13T18:18:04.091Z,3.67
2018-08-13T18:20:31.594Z,3.40
2018-08-13T18:22:59.277Z,3.70
2018-08-13T18:25:26.783Z,3.30
2018-08-13T18:27:54.490Z,3.40
2018-08-13T18:30:29.236Z,3.50
2018-08-13T18:32:56.858Z,3.73
2018-08-13T18:35:24.431Z,3.57
2018-08-13T18:37:52.135Z,3.63
2018-08-13T18:40:25.327Z,3.70
2018-08-13T18:42:52.868Z,3.53
2018-08-13T18:45:20.462Z,3.37
2018-08-13T18:47:48.654Z,3.80
2018-08-13T18:50:18.237Z,3.43
2018-08-13T18:52:46.187Z,3.57
2018-08-13T18:55:15.190Z,4.77
2018-08-13T18:57:43.211Z,4.30
2018-08-13T19:00:14.056Z,3.60
2018-08-13T19:02:41.658Z,4.93
2018-08-13T19:05:10.622Z,4.20
2018-08-13T19:07:38.395Z,3.60
2018-08-13T19:10:07.998Z,4.07
2018-08-13T19:12:36.083Z,3.70
2018-08-13T19:15:04.370Z,3.70
2018-08-13T19:17:32.023Z,3.60
2018-08-13T19:19:59.577Z,3.67
2018-08-13T19:22:27.228Z,3.50
2018-08-13T19:24:55.199Z,3.47
2018-08-13T19:27:22.886Z,3.50
2018-08-13T19:29:50.744Z,3.43
2018-08-13T19:32:18.741Z,3.40
2018-08-13T19:34:46.775Z,3.83
2018-08-13T19:37:14.394Z,3.80
2018-08-13T19:39:42.022Z,4.30
2018-08-13T19:42:09.716Z,4.70
2018-08-13T19:44:37.485Z,4.00
2018-08-13T19:47:05.193Z,3.57
2018-08-13T19:49:32.878Z,3.50
2018-08-13T19:52:00.575Z,3.50
2018-08-13T19:54:28.170Z,3.20
2018-08-13T19:56:56.226Z,3.03
2018-08-13T19:59:23.850Z,3.40
2018-08-13T20:01:51.462Z,3.53
2018-08-13T20:04:19.230Z,3.47
2018-08-13T20:06:46.805Z,3.40
2018-08-13T20:09:14.534Z,3.77
2018-08-13T20:11:42.161Z,3.97
2018-08-13T20:14:09.776Z,3.53
2018-08-13T20:16:37.349Z,5.87
2018-08-13T20:19:04.963Z,3.90
2018-08-13T20:21:32.579Z,4.73
2018-08-13T20:24:00.175Z,3.17
2018-08-13T20:26:28.466Z,3.43
2018-08-13T20:28:56.061Z,3.40
2018-08-13T20:31:23.740Z,3.30
2018-08-13T20:33:51.320Z,3.30
2018-08-13T20:36:18.962Z,3.47
2018-08-13T20:38:46.625Z,3.30
2018-08-13T20:41:14.136Z,4.83
2018-08-13T20:43:41.709Z,3.83
2018-08-13T20:46:09.264Z,3.10
2018-08-13T20:48:36.798Z,3.50
2018-08-13T20:51:04.531Z,3.60
2018-08-13T20:53:32.111Z,3.07
2018-08-13T20:55:59.666Z,3.20
2018-08-13T20:58:27.234Z,3.50
2018-08-13T21:00:54.804Z,3.30
2018-08-13T21:03:22.421Z,3.60
2018-08-13T21:05:49.981Z,3.30
2018-08-13T21:08:17.481Z,3.20
2018-08-13T21:10:45.051Z,3.10
2018-08-13T21:13:12.607Z,3.60
2018-08-13T21:15:40.228Z,3.20
2018-08-13T21:18:07.828Z,3.30
2018-08-13T21:20:35.388Z,3.30
2018-08-13T21:23:02.960Z,3.40
2018-08-13T21:25:30.464Z,3.53
2018-08-13T21:27:57.984Z,3.67
2018-08-13T21:30:25.543Z,3.73
2018-08-13T21:32:53.163Z,3.57
2018-08-13T21:35:22.723Z,3.20
2018-08-13T21:37:50.403Z,3.27
2018-08-13T21:40:18.004Z,3.17
2018-08-13T21:42:45.678Z,3.10
2018-08-13T21:45:13.230Z,3.00
2018-08-13T21:47:40.960Z,3.60
2018-08-13T21:50:14.514Z,3.10
2018-08-13T21:52:42.074Z,3.10
2018-08-13T21:55:09.678Z,3.20
2018-08-13T21:57:37.293Z,3.47
2018-08-13T22:00:23.403Z,3.07
2018-08-13T22:02:51.039Z,3.20
2018-08-13T22:05:18.598Z,3.00
2018-08-13T22:07:46.478Z,2.93
2018-08-13T22:10:14.058Z,3.07
2018-08-13T22:12:41.599Z,3.30
2018-08-13T22:15:24.760Z,3.37
2018-08-13T22:17:52.906Z,3.30
2018-08-13T22:20:20.500Z,2.90
2018-08-13T22:22:48.236Z,2.80
2018-08-13T22:25:18.858Z,2.80
2018-08-13T22:27:46.396Z,2.87
2018-08-13T22:30:13.921Z,2.67
2018-08-13T22:32:41.392Z,2.63
2018-08-13T22:35:09.782Z,2.83
2018-08-13T22:37:39.065Z,3.00
2018-08-13T22:40:08.762Z,3.00
2018-08-13T22:42:36.276Z,2.77
2018-08-13T22:45:05.771Z,2.53
2018-08-13T22:47:33.316Z,2.80
2018-08-13T22:50:00.891Z,2.90
2018-08-13T22:52:28.336Z,2.47
2018-08-13T22:54:55.877Z,2.33
2018-08-13T22:57:23.440Z,2.40
2018-08-13T22:59:50.895Z,2.37
2018-08-13T23:02:18.380Z,2.20
2018-08-13T23:04:45.947Z,2.10
2018-08-13T23:07:13.504Z,2.10
2018-08-13T23:09:41.067Z,2.30
2018-08-13T23:12:09.435Z,2.23
2018-08-13T23:14:37.301Z,2.10
2018-08-13T23:17:18.143Z,2.27
2018-08-13T23:19:45.625Z,2.20
2018-08-13T23:22:26.089Z,2.30
2018-08-13T23:24:53.649Z,2.20
2018-08-13T23:27:21.152Z,1.90
2018-08-13T23:29:48.750Z,2.00
2018-08-13T23:32:16.292Z,2.17
2018-08-13T23:34:43.807Z,2.20
2018-08-13T23:37:11.448Z,2.10
2018-08-13T23:39:39.008Z,2.07
2018-08-13T23:42:06.510Z,2.10
2018-08-13T23:44:34.045Z,2.30
2018-08-13T23:47:01.564Z,1.97
2018-08-13T23:49:29.146Z,1.93
2018-08-13T23:51:56.697Z,1.90
2018-08-13T23:54:24.249Z,2.00
2018-08-13T23:56:51.764Z,2.10
2018-08-13T23:59:19.287Z,2.10
